Temp: 8.5°C   Baro: 1006.5mb
  Wind: 4.0mph   Dir: NNW (342°)
  Rain: 0.0mm (0.0mm/hr)
  Solar: 5W/m2  Hum: 85%
 
Bath Spa Weather Station Historical Data
Daily Summary for May 23, 2020 Units:  Both    English   Metric
Daily Weekly Monthly Yearly Custom
  High: Low: Average:
Temperature: 60.8 °F /  16 °C 49.8 °F /  9.9 °C 54.8 °F /  12.7 °C
Dew Point: 48.6 °F /  9.2 °C 43.2 °F /  6.2 °C 45.5 °F /  7.5 °C
Humidity: 81% 55.4% 71%
Wind Speed: 25mph /  40.2km/h - 10.1mph /  16.3km/h
Wind Gust: 34mph /  54.7km/h - -
Wind- - West
Pressure: 30.35 in /  1027.7 hPa 30.09 in /  1018.8 hPa -
Precipitation: 0.06 in /  1.52 mm    
Historical Graphs
 
 
Tabular Data for May 23, 2020
Time Temperature Dew Point Pressure Wind Wind Speed Wind Gust Humidity Rainfall Rate (Hourly) solar
00:04 53.2 °F /  11.8 °C 44.8 °F /  7.1 °C 30.10in /  1019.2hPa WSW 9mph /  14.5km/h 11mph /  17.7km/h 73% 0.00in /  0mm 0 W/m2
00:09 53.2 °F /  11.8 °C 44.9 °F /  7.2 °C 30.10in /  1019.2hPa SW 5.9mph /  9.5km/h 12mph /  19.3km/h 73.6% 0.00in /  0mm 0 W/m2
00:14 53.1 °F /  11.7 °C 45 °F /  7.2 °C 30.10in /  1019.2hPa WSW 5.2mph /  8.4km/h 11mph /  17.7km/h 74% 0.00in /  0mm 0 W/m2
00:19 53.1 °F /  11.7 °C 45 °F /  7.2 °C 30.10in /  1019.2hPa SW 6.4mph /  10.3km/h 11mph /  17.7km/h 74% 0.00in /  0mm 0 W/m2
00:24 52.9 °F /  11.6 °C 44.8 °F /  7.1 °C 30.10in /  1019.2hPa WSW 4mph /  6.4km/h 10mph /  16.1km/h 74% 0.00in /  0mm 0 W/m2
00:29 52.8 °F /  11.6 °C 44.7 °F /  7.1 °C 30.10in /  1019.2hPa WSW 5.8mph /  9.3km/h 14mph /  22.5km/h 74% 0.00in /  0mm 0 W/m2
00:34 52.6 °F /  11.4 °C 44.5 °F /  6.9 °C 30.09in /  1018.8hPa SW 6.2mph /  10km/h 11mph /  17.7km/h 74% 0.00in /  0mm 0 W/m2
00:39 52.5 °F /  11.4 °C 44.8 °F /  7.1 °C 30.09in /  1018.8hPa WSW 4.9mph /  7.9km/h 13mph /  20.9km/h 75% 0.00in /  0mm 0 W/m2
00:44 52.3 °F /  11.3 °C 44.6 °F /  7 °C 30.09in /  1018.8hPa WSW 4.7mph /  7.6km/h 9mph /  14.5km/h 75% 0.00in /  0mm 0 W/m2
00:49 52.3 °F /  11.3 °C 44.6 °F /  7 °C 30.09in /  1018.8hPa WSW 6mph /  9.7km/h 11mph /  17.7km/h 75% 0.00in /  0mm 0 W/m2
00:54 52.3 °F /  11.3 °C 44.6 °F /  7 °C 30.09in /  1018.8hPa WSW 6.2mph /  10km/h 11mph /  17.7km/h 75% 0.00in /  0mm 0 W/m2
00:59 52.2 °F /  11.2 °C 44.4 °F /  6.9 °C 30.09in /  1018.8hPa WSW 6.4mph /  10.3km/h 11mph /  17.7km/h 75% 0.00in /  0mm 0 W/m2
01:04 52.2 °F /  11.2 °C 44.4 °F /  6.9 °C 30.09in /  1018.8hPa SW 7mph /  11.3km/h 12mph /  19.3km/h 75% 0.00in /  0mm 0 W/m2
01:09 52.2 °F /  11.2 °C 44.4 °F /  6.9 °C 30.10in /  1019.2hPa WSW 4.5mph /  7.2km/h 11mph /  17.7km/h 75% 0.00in /  0mm 0 W/m2
01:14 52 °F /  11.1 °C 44.2 °F /  6.8 °C 30.10in /  1019.2hPa WSW 5mph /  8km/h 11mph /  17.7km/h 75% 0.00in /  0mm 0 W/m2
01:19 52 °F /  11.1 °C 44.3 °F /  6.8 °C 30.10in /  1019.2hPa WSW 5.6mph /  9km/h 9mph /  14.5km/h 75.2% 0.00in /  0mm 0 W/m2
01:24 51.9 °F /  11.1 °C 44.5 °F /  6.9 °C 30.10in /  1019.2hPa WSW 4.9mph /  7.9km/h 10mph /  16.1km/h 76% 0.00in /  0mm 0 W/m2
01:29 51.7 °F /  10.9 °C 44.3 °F /  6.8 °C 30.10in /  1019.2hPa WSW 3.3mph /  5.3km/h 10mph /  16.1km/h 76% 0.00in /  0mm 0 W/m2
01:34 51.6 °F /  10.9 °C 44.2 °F /  6.8 °C 30.10in /  1019.2hPa WSW 4.9mph /  7.9km/h 11mph /  17.7km/h 76% 0.00in /  0mm 0 W/m2
01:39 51.6 °F /  10.9 °C 44.2 °F /  6.8 °C 30.10in /  1019.2hPa SW 4.7mph /  7.6km/h 11mph /  17.7km/h 76% 0.00in /  0mm 0 W/m2
01:44 51.5 °F /  10.8 °C 44.1 °F /  6.7 °C 30.10in /  1019.2hPa WSW 4.2mph /  6.8km/h 9mph /  14.5km/h 76% 0.00in /  0mm 0 W/m2
01:49 51.4 °F /  10.8 °C 44.1 °F /  6.7 °C 30.10in /  1019.2hPa WSW 5.8mph /  9.3km/h 14mph /  22.5km/h 76% 0.00in /  0mm 0 W/m2
01:54 51.4 °F /  10.8 °C 44.1 °F /  6.7 °C 30.10in /  1019.2hPa SW 4.8mph /  7.7km/h 12mph /  19.3km/h 76% 0.00in /  0mm 0 W/m2
01:59 51.4 °F /  10.8 °C 44.1 °F /  6.7 °C 30.10in /  1019.2hPa WSW 7mph /  11.3km/h 13mph /  20.9km/h 76% 0.00in /  0mm 0 W/m2
02:04 51.4 °F /  10.8 °C 44.2 °F /  6.8 °C 30.10in /  1019.2hPa SW 6.8mph /  10.9km/h 10mph /  16.1km/h 76.2% 0.00in /  0mm 0 W/m2
02:09 51.4 °F /  10.8 °C 44.4 °F /  6.9 °C 30.10in /  1019.2hPa WSW 5.6mph /  9km/h 12mph /  19.3km/h 77% 0.00in /  0mm 0 W/m2
02:14 51.3 °F /  10.7 °C 44.2 °F /  6.8 °C 30.10in /  1019.2hPa WSW 5.6mph /  9km/h 13mph /  20.9km/h 77% 0.00in /  0mm 0 W/m2
02:19 51.3 °F /  10.7 °C 44.2 °F /  6.8 °C 30.10in /  1019.2hPa West 6.4mph /  10.3km/h 11mph /  17.7km/h 77% 0.00in /  0mm 0 W/m2
02:24 51.3 °F /  10.7 °C 44.2 °F /  6.8 °C 30.10in /  1019.2hPa SW 5mph /  8km/h 12mph /  19.3km/h 77% 0.00in /  0mm 0 W/m2
02:29 51.3 °F /  10.7 °C 44.2 °F /  6.8 °C 30.09in /  1018.8hPa WSW 5.4mph /  8.7km/h 13mph /  20.9km/h 77% 0.00in /  0mm 0 W/m2
02:34 51.3 °F /  10.7 °C 44.2 °F /  6.8 °C 30.10in /  1019.2hPa SW 4.9mph /  7.9km/h 10mph /  16.1km/h 77% 0.00in /  0mm 0 W/m2
02:39 51.3 °F /  10.7 °C 44.2 °F /  6.8 °C 30.09in /  1018.8hPa WSW 3.4mph /  5.5km/h 8mph /  12.9km/h 77% 0.00in /  0mm 0 W/m2
02:43 51.1 °F /  10.6 °C 44.2 °F /  6.8 °C 30.10in /  1019.2hPa WSW 3.2mph /  5.1km/h 9mph /  14.5km/h 77.3% 0.00in /  0mm 0 W/m2
02:49 51.1 °F /  10.6 °C 44.3 °F /  6.8 °C 30.10in /  1019.2hPa WSW 5.6mph /  9km/h 15mph /  24.1km/h 77.6% 0.00in /  0mm 0 W/m2
02:54 51.1 °F /  10.6 °C 44.4 °F /  6.9 °C 30.10in /  1019.2hPa SW 6.6mph /  10.6km/h 10mph /  16.1km/h 78% 0.00in /  0mm 0 W/m2
02:59 51.1 °F /  10.6 °C 44.4 °F /  6.9 °C 30.10in /  1019.2hPa WSW 5.2mph /  8.4km/h 13mph /  20.9km/h 78% 0.00in /  0mm 0 W/m2
03:04 51.1 °F /  10.6 °C 44.4 °F /  6.9 °C 30.10in /  1019.2hPa SSW 5.1mph /  8.2km/h 12mph /  19.3km/h 78% 0.00in /  0mm 0 W/m2
03:09 51.1 °F /  10.6 °C 44.4 °F /  6.9 °C 30.10in /  1019.2hPa SW 7.4mph /  11.9km/h 12mph /  19.3km/h 78% 0.00in /  0mm 0 W/m2
03:14 51 °F /  10.6 °C 44.3 °F /  6.8 °C 30.10in /  1019.2hPa WSW 2.8mph /  4.5km/h 8mph /  12.9km/h 78% 0.00in /  0mm 0 W/m2
03:19 50.8 °F /  10.4 °C 44.2 °F /  6.8 °C 30.10in /  1019.2hPa SW 5.2mph /  8.4km/h 9mph /  14.5km/h 78% 0.00in /  0mm 0 W/m2
03:24 50.7 °F /  10.4 °C 44.1 °F /  6.7 °C 30.10in /  1019.2hPa SW 5.8mph /  9.3km/h 9mph /  14.5km/h 78% 0.00in /  0mm 0 W/m2
03:29 50.7 °F /  10.4 °C 44.1 °F /  6.7 °C 30.10in /  1019.2hPa SW 3.3mph /  5.3km/h 11mph /  17.7km/h 78% 0.00in /  0mm 0 W/m2
03:34 50.6 °F /  10.3 °C 44 °F /  6.7 °C 30.10in /  1019.2hPa SW 5mph /  8km/h 10mph /  16.1km/h 78% 0.00in /  0mm 0 W/m2
03:39 50.5 °F /  10.3 °C 43.9 °F /  6.6 °C 30.10in /  1019.2hPa WSW 4.4mph /  7.1km/h 7mph /  11.3km/h 78% 0.00in /  0mm 0 W/m2
03:44 50.5 °F /  10.3 °C 44 °F /  6.7 °C 30.10in /  1019.2hPa SW 5.3mph /  8.5km/h 7mph /  11.3km/h 78.2% 0.00in /  0mm 0 W/m2
03:49 50.5 °F /  10.3 °C 43.8 °F /  6.6 °C 30.10in /  1019.2hPa SW 2.5mph /  4km/h 7mph /  11.3km/h 78% 0.00in /  0mm 0 W/m2
03:54 50.4 °F /  10.2 °C 43.9 °F /  6.6 °C 30.10in /  1019.2hPa SW 3.6mph /  5.8km/h 8mph /  12.9km/h 78.6% 0.00in /  0mm 0 W/m2
03:59 50.4 °F /  10.2 °C 44.1 °F /  6.7 °C 30.10in /  1019.2hPa SW 3.2mph /  5.1km/h 8mph /  12.9km/h 79% 0.00in /  0mm 0 W/m2
04:04 50.4 °F /  10.2 °C 44.1 °F /  6.7 °C 30.10in /  1019.2hPa SW 3.3mph /  5.3km/h 9mph /  14.5km/h 79% 0.00in /  0mm 0 W/m2
04:09 50.4 °F /  10.2 °C 44.1 °F /  6.7 °C 30.10in /  1019.2hPa SW 4.8mph /  7.7km/h 9mph /  14.5km/h 79% 0.00in /  0mm 0 W/m2
04:14 50.4 °F /  10.2 °C 44.1 °F /  6.7 °C 30.10in /  1019.2hPa SW 5.4mph /  8.7km/h 10mph /  16.1km/h 79% 0.00in /  0mm 0 W/m2
04:19 50.4 °F /  10.2 °C 44.1 °F /  6.7 °C 30.10in /  1019.2hPa SW 4.4mph /  7.1km/h 10mph /  16.1km/h 79% 0.00in /  0mm 0 W/m2
04:24 50.4 °F /  10.2 °C 44.1 °F /  6.7 °C 30.11in /  1019.5hPa SW 7mph /  11.3km/h 13mph /  20.9km/h 79% 0.00in /  0mm 0 W/m2
04:29 50.3 °F /  10.2 °C 44 °F /  6.7 °C 30.11in /  1019.5hPa SW 6.6mph /  10.6km/h 12mph /  19.3km/h 79% 0.00in /  0mm 0 W/m2
04:34 50.2 °F /  10.1 °C 43.9 °F /  6.6 °C 30.11in /  1019.5hPa SW 5.7mph /  9.2km/h 11mph /  17.7km/h 79% 0.00in /  0mm 0 W/m2
04:39 50.2 °F /  10.1 °C 44 °F /  6.7 °C 30.11in /  1019.5hPa SW 5.4mph /  8.7km/h 11mph /  17.7km/h 79.2% 0.00in /  0mm 0 W/m2
04:44 50.2 °F /  10.1 °C 44.2 °F /  6.8 °C 30.11in /  1019.5hPa SW 4.7mph /  7.6km/h 11mph /  17.7km/h 80% 0.00in /  0mm 0 W/m2
04:49 50.2 °F /  10.1 °C 44.2 °F /  6.8 °C 30.11in /  1019.5hPa WSW 3.4mph /  5.5km/h 9mph /  14.5km/h 80% 0.00in /  0mm 0 W/m2
04:54 50.2 °F /  10.1 °C 44.2 °F /  6.8 °C 30.11in /  1019.5hPa SW 4.5mph /  7.2km/h 12mph /  19.3km/h 80% 0.00in /  0mm 0 W/m2
04:59 50.2 °F /  10.1 °C 44.2 °F /  6.8 °C 30.11in /  1019.5hPa SW 3.5mph /  5.6km/h 10mph /  16.1km/h 80% 0.00in /  0mm 0 W/m2
05:04 50.2 °F /  10.1 °C 44.2 °F /  6.8 °C 30.11in /  1019.5hPa WSW 5.9mph /  9.5km/h 11mph /  17.7km/h 80% 0.00in /  0mm 0 W/m2
05:09 50.2 °F /  10.1 °C 44.2 °F /  6.8 °C 30.11in /  1019.5hPa SW 3.8mph /  6.1km/h 8mph /  12.9km/h 80% 0.00in /  0mm 5 W/m2
05:14 50.2 °F /  10.1 °C 44.2 °F /  6.8 °C 30.11in /  1019.5hPa SW 4.4mph /  7.1km/h 9mph /  14.5km/h 80% 0.00in /  0mm 5 W/m2
05:19 50 °F /  10 °C 44.1 °F /  6.7 °C 30.11in /  1019.5hPa SW 4.7mph /  7.6km/h 9mph /  14.5km/h 80% 0.00in /  0mm 9 W/m2
05:24 49.9 °F /  9.9 °C 44 °F /  6.7 °C 30.11in /  1019.5hPa SW 4.5mph /  7.2km/h 8mph /  12.9km/h 80% 0.00in /  0mm 14 W/m2
05:29 49.8 °F /  9.9 °C 43.9 °F /  6.6 °C 30.11in /  1019.5hPa SW 4.6mph /  7.4km/h 9mph /  14.5km/h 80% 0.00in /  0mm 14 W/m2
05:34 49.8 °F /  9.9 °C 43.9 °F /  6.6 °C 30.11in /  1019.5hPa SW 6.7mph /  10.8km/h 11mph /  17.7km/h 80% 0.00in /  0mm 16 W/m2
05:39 49.8 °F /  9.9 °C 43.9 °F /  6.6 °C 30.11in /  1019.5hPa SW 5.4mph /  8.7km/h 11mph /  17.7km/h 80% 0.00in /  0mm 21 W/m2
05:44 49.8 °F /  9.9 °C 43.9 °F /  6.6 °C 30.11in /  1019.5hPa WSW 6.6mph /  10.6km/h 11mph /  17.7km/h 80% 0.00in /  0mm 25 W/m2
05:49 49.8 °F /  9.9 °C 44.1 °F /  6.7 °C 30.11in /  1019.5hPa SW 7.1mph /  11.4km/h 11mph /  17.7km/h 80.8% 0.00in /  0mm 72 W/m2
05:54 49.9 °F /  9.9 °C 44.3 °F /  6.8 °C 30.11in /  1019.5hPa SW 7.1mph /  11.4km/h 12mph /  19.3km/h 81% 0.00in /  0mm 84 W/m2
05:59 50.2 °F /  10.1 °C 44.6 °F /  7 °C 30.11in /  1019.5hPa WSW 6.3mph /  10.1km/h 11mph /  17.7km/h 81% 0.00in /  0mm 26 W/m2
06:04 50.2 °F /  10.1 °C 44.6 °F /  7 °C 30.11in /  1019.5hPa WSW 5.4mph /  8.7km/h 12mph /  19.3km/h 81% 0.00in /  0mm 62 W/m2
06:08 50.2 °F /  10.1 °C 44.6 °F /  7 °C 30.12in /  1019.9hPa WSW 7.5mph /  12.1km/h 12mph /  19.3km/h 81% 0.00in /  0mm 102 W/m2
06:14 50.4 °F /  10.2 °C 44.8 °F /  7.1 °C 30.12in /  1019.9hPa West 5.6mph /  9km/h 13mph /  20.9km/h 81% 0.00in /  0mm 86 W/m2
06:19 50.4 °F /  10.2 °C 44.9 °F /  7.2 °C 30.12in /  1019.9hPa WSW 7mph /  11.3km/h 12mph /  19.3km/h 81% 0.00in /  0mm 63 W/m2
06:24 50.6 °F /  10.3 °C 45.1 °F /  7.3 °C 30.12in /  1019.9hPa West 6.8mph /  10.9km/h 13mph /  20.9km/h 81% 0.00in /  0mm 51 W/m2
06:29 50.7 °F /  10.4 °C 45.1 °F /  7.3 °C 30.12in /  1019.9hPa West 6.4mph /  10.3km/h 12mph /  19.3km/h 81% 0.00in /  0mm 60 W/m2
06:34 50.9 °F /  10.5 °C 45.3 °F /  7.4 °C 30.12in /  1019.9hPa WSW 6.8mph /  10.9km/h 10mph /  16.1km/h 81% 0.00in /  0mm 47 W/m2
06:39 51.1 °F /  10.6 °C 45.3 °F /  7.4 °C 30.12in /  1019.9hPa WSW 9.4mph /  15.1km/h 19mph /  30.6km/h 80.4% 0.00in /  0mm 60 W/m2
06:44 51.2 °F /  10.7 °C 45.2 °F /  7.3 °C 30.13in /  1020.2hPa West 6.6mph /  10.6km/h 15mph /  24.1km/h 80% 0.00in /  0mm 76 W/m2
06:49 51.3 °F /  10.7 °C 45.3 °F /  7.4 °C 30.13in /  1020.2hPa WSW 7.8mph /  12.6km/h 15mph /  24.1km/h 80% 0.00in /  0mm 102 W/m2
06:54 51.5 °F /  10.8 °C 45.6 °F /  7.6 °C 30.13in /  1020.2hPa West 7.2mph /  11.6km/h 13mph /  20.9km/h 80% 0.00in /  0mm 148 W/m2
06:59 51.8 °F /  11 °C 45.7 °F /  7.6 °C 30.13in /  1020.2hPa WSW 5.6mph /  9km/h 13mph /  20.9km/h 79.6% 0.00in /  0mm 172 W/m2
07:04 52.1 °F /  11.2 °C 45.8 °F /  7.7 °C 30.13in /  1020.2hPa West 7.4mph /  11.9km/h 11mph /  17.7km/h 79% 0.00in /  0mm 172 W/m2
07:09 52.2 °F /  11.2 °C 45.8 °F /  7.7 °C 30.13in /  1020.2hPa WSW 6.2mph /  10km/h 15mph /  24.1km/h 78.8% 0.00in /  0mm 113 W/m2
07:14 52 °F /  11.1 °C 45.5 °F /  7.5 °C 30.13in /  1020.2hPa West 5.6mph /  9km/h 12mph /  19.3km/h 78.4% 0.00in /  0mm 223 W/m2
07:19 52.2 °F /  11.2 °C 45.5 °F /  7.5 °C 30.13in /  1020.2hPa West 7.2mph /  11.6km/h 17mph /  27.4km/h 78% 0.00in /  0mm 209 W/m2
07:23 52.4 °F /  11.3 °C 45.8 °F /  7.7 °C 30.13in /  1020.2hPa West 10.3mph /  16.6km/h 16mph /  25.7km/h 78% 0.00in /  0mm 230 W/m2
07:29 52.5 °F /  11.4 °C 45.5 °F /  7.5 °C 30.13in /  1020.2hPa WSW 8.8mph /  14.2km/h 16mph /  25.7km/h 77% 0.00in /  0mm 195 W/m2
07:34 52.9 °F /  11.6 °C 45.9 °F /  7.7 °C 30.13in /  1020.2hPa WSW 10.6mph /  17.1km/h 21mph /  33.8km/h 77% 0.00in /  0mm 267 W/m2
07:39 53.1 °F /  11.7 °C 45.7 °F /  7.6 °C 30.13in /  1020.2hPa WSW 8mph /  12.9km/h 16mph /  25.7km/h 76% 0.00in /  0mm 134 W/m2
07:44 53.2 °F /  11.8 °C 45.5 °F /  7.5 °C 30.13in /  1020.2hPa WSW 10.4mph /  16.7km/h 19mph /  30.6km/h 75.2% 0.00in /  0mm 294 W/m2
07:49 53.6 °F /  12 °C 45.9 °F /  7.7 °C 30.14in /  1020.5hPa West 10.4mph /  16.7km/h 18mph /  29km/h 75.2% 0.00in /  0mm 322 W/m2
07:54 53.7 °F /  12.1 °C 45.7 °F /  7.6 °C 30.14in /  1020.5hPa SW 10.2mph /  16.4km/h 19mph /  30.6km/h 74.2% 0.00in /  0mm 232 W/m2
07:59 54 °F /  12.2 °C 45.6 °F /  7.6 °C 30.14in /  1020.5hPa WSW 6.9mph /  11.1km/h 18mph /  29km/h 73.2% 0.00in /  0mm 385 W/m2
08:04 54.7 °F /  12.6 °C 45.8 °F /  7.7 °C 30.14in /  1020.5hPa West 9.2mph /  14.8km/h 18mph /  29km/h 72% 0.00in /  0mm 287 W/m2
08:09 54.8 °F /  12.7 °C 45.1 °F /  7.3 °C 30.14in /  1020.5hPa WNW 10.6mph /  17.1km/h 24mph /  38.6km/h 69.6% 0.00in /  0mm 417 W/m2
08:14 54.5 °F /  12.5 °C 44.2 °F /  6.8 °C 30.14in /  1020.5hPa WNW 16.1mph /  25.9km/h 26mph /  41.8km/h 68% 0.00in /  0mm 223 W/m2
08:19 54.6 °F /  12.6 °C 44.7 °F /  7.1 °C 30.14in /  1020.5hPa West 10.7mph /  17.2km/h 24mph /  38.6km/h 69% 0.00in /  0mm 432 W/m2
08:24 55.1 °F /  12.8 °C 44.9 °F /  7.2 °C 30.14in /  1020.5hPa West 8.2mph /  13.2km/h 22mph /  35.4km/h 68.4% 0.00in /  0mm 501 W/m2
08:29 55.4 °F /  13 °C 44.8 °F /  7.1 °C 30.15in /  1020.9hPa West 9mph /  14.5km/h 22mph /  35.4km/h 67.6% 0.00in /  0mm 508 W/m2
08:34 55.2 °F /  12.9 °C 44.4 °F /  6.9 °C 30.15in /  1020.9hPa West 10.4mph /  16.7km/h 19mph /  30.6km/h 67% 0.00in /  0mm 508 W/m2
08:39 55.5 °F /  13.1 °C 44.6 °F /  7 °C 30.15in /  1020.9hPa WNW 10.4mph /  16.7km/h 21mph /  33.8km/h 66.6% 0.00in /  0mm 559 W/m2
08:44 56.1 °F /  13.4 °C 44.8 °F /  7.1 °C 30.14in /  1020.5hPa West 12.6mph /  20.3km/h 21mph /  33.8km/h 65.6% 0.00in /  0mm 559 W/m2
08:49 56.1 °F /  13.4 °C 45.3 °F /  7.4 °C 30.15in /  1020.9hPa West 11.2mph /  18km/h 23mph /  37km/h 67% 0.00in /  0mm 534 W/m2
08:54 56.2 °F /  13.4 °C 45.4 °F /  7.4 °C 30.15in /  1020.9hPa WSW 11.2mph /  18km/h 25mph /  40.2km/h 67% 0.00in /  0mm 621 W/m2
08:59 56.4 °F /  13.6 °C 45.4 °F /  7.4 °C 30.15in /  1020.9hPa West 13.4mph /  21.6km/h 27mph /  43.5km/h 66.4% 0.00in /  0mm 619 W/m2
09:04 56.4 °F /  13.6 °C 45.5 °F /  7.5 °C 30.15in /  1020.9hPa West 12.8mph /  20.6km/h 24mph /  38.6km/h 66.8% 0.00in /  0mm 649 W/m2
09:09 56.7 °F /  13.7 °C 45.8 °F /  7.7 °C 30.15in /  1020.9hPa West 6.9mph /  11.1km/h 21mph /  33.8km/h 66.8% 0.00in /  0mm 649 W/m2
09:14 56.9 °F /  13.8 °C 45.9 °F /  7.7 °C 30.15in /  1020.9hPa West 13.4mph /  21.6km/h 20mph /  32.2km/h 66.4% 0.00in /  0mm 626 W/m2
09:19 56.9 °F /  13.8 °C 45.9 °F /  7.7 °C 30.15in /  1020.9hPa West 13.5mph /  21.7km/h 22mph /  35.4km/h 66.4% 0.00in /  0mm 737 W/m2
09:24 56.8 °F /  13.8 °C 45.9 °F /  7.7 °C 30.16in /  1021.2hPa West 10.9mph /  17.5km/h 23mph /  37km/h 66.6% 0.00in /  0mm 737 W/m2
09:29 56.7 °F /  13.7 °C 45.9 °F /  7.7 °C 30.16in /  1021.2hPa West 7.4mph /  11.9km/h 19mph /  30.6km/h 67.2% 0.00in /  0mm 216 W/m2
09:34 56.9 °F /  13.8 °C 45.8 °F /  7.7 °C 30.16in /  1021.2hPa WSW 11.8mph /  19km/h 19mph /  30.6km/h 66.2% 0.00in /  0mm 693 W/m2
09:39 57.2 °F /  14 °C 45.9 °F /  7.7 °C 30.16in /  1021.2hPa WSW 12.2mph /  19.6km/h 22mph /  35.4km/h 66% 0.00in /  0mm 693 W/m2
09:44 56.8 °F /  13.8 °C 45.8 °F /  7.7 °C 30.16in /  1021.2hPa WSW 12.8mph /  20.6km/h 21mph /  33.8km/h 66.5% 0.00in /  0mm 204 W/m2
09:49 56.5 °F /  13.6 °C 45.8 °F /  7.7 °C 30.16in /  1021.2hPa West 11.8mph /  19km/h 21mph /  33.8km/h 67.2% 0.00in /  0mm 756 W/m2
09:54 56.6 °F /  13.7 °C 46.2 °F /  7.9 °C 30.16in /  1021.2hPa West 11.4mph /  18.3km/h 24mph /  38.6km/h 68% 0.00in /  0mm 756 W/m2
09:59 56.8 °F /  13.8 °C 46.3 °F /  7.9 °C 30.17in /  1021.6hPa West 13.6mph /  21.9km/h 22mph /  35.4km/h 68% 0.00in /  0mm 202 W/m2
10:04 56.3 °F /  13.5 °C 46 °F /  7.8 °C 30.17in /  1021.6hPa West 13mph /  20.9km/h 28mph /  45.1km/h 68.4% 0.00in /  0mm 330 W/m2
10:09 56.5 °F /  13.6 °C 46.1 °F /  7.8 °C 30.16in /  1021.2hPa WNW 7.5mph /  12.1km/h 30mph /  48.3km/h 68% 0.00in /  0mm 656 W/m2
10:14 57.8 °F /  14.3 °C 46.9 °F /  8.3 °C 30.16in /  1021.2hPa WSW 6.6mph /  10.6km/h 14mph /  22.5km/h 67% 0.00in /  0mm 656 W/m2
10:19 57.5 °F /  14.2 °C 47 °F /  8.3 °C 30.17in /  1021.6hPa West 12mph /  19.3km/h 28mph /  45.1km/h 68% 0.04in /  1.02mm 656 W/m2
10:24 53.5 °F /  11.9 °C 45.3 °F /  7.4 °C 30.18in /  1021.9hPa WSW 11.6mph /  18.7km/h 28mph /  45.1km/h 73.8% 0.06in /  1.52mm 216 W/m2
10:29 52.5 °F /  11.4 °C 45.4 °F /  7.4 °C 30.17in /  1021.6hPa West 8.4mph /  13.5km/h 22mph /  35.4km/h 76.8% 0.06in /  1.52mm 617 W/m2
10:34 53.5 °F /  11.9 °C 47.4 °F /  8.6 °C 30.17in /  1021.6hPa West 9.8mph /  15.8km/h 22mph /  35.4km/h 79.8% 0.06in /  1.52mm 693 W/m2
10:39 54.5 °F /  12.5 °C 48.4 °F /  9.1 °C 30.16in /  1021.2hPa WNW 6.6mph /  10.6km/h 14mph /  22.5km/h 80% 0.06in /  1.52mm 601 W/m2
10:44 54.7 °F /  12.6 °C 48.1 °F /  8.9 °C 30.16in /  1021.2hPa West 11.4mph /  18.3km/h 21mph /  33.8km/h 78.4% 0.06in /  1.52mm 262 W/m2
10:49 54.5 °F /  12.5 °C 47.3 °F /  8.5 °C 30.17in /  1021.6hPa WNW 11.4mph /  18.3km/h 21mph /  33.8km/h 76.6% 0.06in /  1.52mm 155 W/m2
10:54 53.9 °F /  12.2 °C 46.6 °F /  8.1 °C 30.17in /  1021.6hPa WNW 9.4mph /  15.1km/h 19mph /  30.6km/h 76.2% 0.06in /  1.52mm 754 W/m2
10:59 54.6 °F /  12.6 °C 47.5 °F /  8.6 °C 30.17in /  1021.6hPa WNW 11.8mph /  19km/h 20mph /  32.2km/h 76.8% 0.06in /  1.52mm 816 W/m2
11:04 56.2 °F /  13.4 °C 48.6 °F /  9.2 °C 30.17in /  1021.6hPa WNW 10.5mph /  16.9km/h 23mph /  37km/h 75.4% 0.06in /  1.52mm 907 W/m2
11:09 56.8 °F /  13.8 °C 47.3 °F /  8.5 °C 30.17in /  1021.6hPa NW 13.5mph /  21.7km/h 22mph /  35.4km/h 70.5% 0.06in /  1.52mm 1007 W/m2
11:14 57 °F /  13.9 °C 46.5 °F /  8.1 °C 30.18in /  1021.9hPa West 13mph /  20.9km/h 28mph /  45.1km/h 67.8% 0.06in /  1.52mm 953 W/m2
11:19 57.4 °F /  14.1 °C 46.7 °F /  8.2 °C 30.18in /  1021.9hPa West 8.4mph /  13.5km/h 21mph /  33.8km/h 67.4% 0.06in /  1.52mm 958 W/m2
11:24 57.6 °F /  14.2 °C 46.4 °F /  8 °C 30.18in /  1021.9hPa WNW 15mph /  24.1km/h 30mph /  48.3km/h 66.4% 0.00in /  0mm 958 W/m2
11:29 57.6 °F /  14.2 °C 46.5 °F /  8.1 °C 30.18in /  1021.9hPa West 14.4mph /  23.2km/h 22mph /  35.4km/h 66.6% 0.00in /  0mm 810 W/m2
11:34 58.1 °F /  14.5 °C 46.7 °F /  8.2 °C 30.18in /  1021.9hPa West 10.4mph /  16.7km/h 27mph /  43.5km/h 65.8% 0.00in /  0mm 893 W/m2
11:39 58.3 °F /  14.6 °C 46.5 °F /  8.1 °C 30.19in /  1022.2hPa WNW 18mph /  29km/h 29mph /  46.7km/h 64.8% 0.00in /  0mm 840 W/m2
11:44 58.3 °F /  14.6 °C 46.4 °F /  8 °C 30.19in /  1022.2hPa WNW 15.8mph /  25.4km/h 28mph /  45.1km/h 64.6% 0.00in /  0mm 891 W/m2
11:49 58.4 °F /  14.7 °C 46 °F /  7.8 °C 30.19in /  1022.2hPa West 14.8mph /  23.8km/h 32mph /  51.5km/h 63.2% 0.00in /  0mm 853 W/m2
11:54 58.7 °F /  14.8 °C 45.6 °F /  7.6 °C 30.19in /  1022.2hPa WSW 12.8mph /  20.6km/h 32mph /  51.5km/h 61.6% 0.00in /  0mm 884 W/m2
11:59 59.1 °F /  15.1 °C 44.7 °F /  7.1 °C 30.19in /  1022.2hPa WNW 17mph /  27.4km/h 30mph /  48.3km/h 58.8% 0.00in /  0mm 918 W/m2
12:04 59 °F /  15 °C 45.1 °F /  7.3 °C 30.19in /  1022.2hPa West 11.4mph /  18.3km/h 25mph /  40.2km/h 59.8% 0.00in /  0mm 898 W/m2
12:09 59.4 °F /  15.2 °C 45.4 °F /  7.4 °C 30.19in /  1022.2hPa West 15mph /  24.1km/h 27mph /  43.5km/h 59.8% 0.00in /  0mm 886 W/m2
12:14 59.6 °F /  15.3 °C 45.6 °F /  7.6 °C 30.19in /  1022.2hPa WNW 16.1mph /  25.9km/h 25mph /  40.2km/h 59.8% 0.00in /  0mm 888 W/m2
12:19 59.2 °F /  15.1 °C 44.6 °F /  7 °C 30.19in /  1022.2hPa WNW 15.4mph /  24.8km/h 26mph /  41.8km/h 58.4% 0.00in /  0mm 918 W/m2
12:24 59.2 °F /  15.1 °C 44.5 °F /  6.9 °C 30.20in /  1022.6hPa WNW 13.2mph /  21.2km/h 30mph /  48.3km/h 58.2% 0.00in /  0mm 923 W/m2
12:29 59.2 °F /  15.1 °C 43.9 °F /  6.6 °C 30.19in /  1022.2hPa WNW 10mph /  16.1km/h 26mph /  41.8km/h 57% 0.00in /  0mm 858 W/m2
12:34 59.6 °F /  15.3 °C 44.8 °F /  7.1 °C 30.19in /  1022.2hPa WNW 9.2mph /  14.8km/h 29mph /  46.7km/h 58.3% 0.00in /  0mm 867 W/m2
12:39 60.3 °F /  15.7 °C 45.7 °F /  7.6 °C 30.19in /  1022.2hPa West 11mph /  17.7km/h 20mph /  32.2km/h 58.6% 0.00in /  0mm 937 W/m2
12:44 60.8 °F /  16 °C 46 °F /  7.8 °C 30.19in /  1022.2hPa WNW 12.4mph /  20km/h 26mph /  41.8km/h 58.2% 0.00in /  0mm 1000 W/m2
12:49 59.8 °F /  15.4 °C 45.5 °F /  7.5 °C 30.19in /  1022.2hPa WNW 16.4mph /  26.4km/h 26mph /  41.8km/h 59.2% 0.00in /  0mm 1000 W/m2
12:54 59.5 °F /  15.3 °C 45.3 °F /  7.4 °C 30.20in /  1022.6hPa WNW 15.4mph /  24.8km/h 28mph /  45.1km/h 59.2% 0.01in /  0.25mm 919 W/m2
12:59 60 °F /  15.6 °C 44.8 °F /  7.1 °C 30.19in /  1022.2hPa WNW 18.2mph /  29.3km/h 28mph /  45.1km/h 57.2% 0.01in /  0.25mm 960 W/m2
13:04 60.1 °F /  15.6 °C 45.1 °F /  7.3 °C 30.20in /  1022.6hPa WNW 15.8mph /  25.4km/h 28mph /  45.1km/h 57.6% 0.01in /  0.25mm 960 W/m2
13:09 59.4 °F /  15.2 °C 43.8 °F /  6.6 °C 30.20in /  1022.6hPa WNW 16.4mph /  26.4km/h 27mph /  43.5km/h 56.2% 0.01in /  0.25mm 998 W/m2
13:14 59.2 °F /  15.1 °C 43.2 °F /  6.2 °C 30.20in /  1022.6hPa WNW 13.4mph /  21.6km/h 31mph /  49.9km/h 55.4% 0.01in /  0.25mm 884 W/m2
13:19 59.5 °F /  15.3 °C 44.3 °F /  6.8 °C 30.20in /  1022.6hPa West 13.2mph /  21.2km/h 26mph /  41.8km/h 57.2% 0.01in /  0.25mm 954 W/m2
13:24 59.7 °F /  15.4 °C 44.9 °F /  7.2 °C 30.21in /  1022.9hPa West 15.4mph /  24.8km/h 26mph /  41.8km/h 58% 0.01in /  0.25mm 997 W/m2
13:29 60 °F /  15.6 °C 44.9 °F /  7.2 °C 30.21in /  1022.9hPa NW 16.2mph /  26.1km/h 27mph /  43.5km/h 57.4% 0.01in /  0.25mm 974 W/m2
13:34 59.9 °F /  15.5 °C 45.1 °F /  7.3 °C 30.21in /  1022.9hPa West 14.2mph /  22.9km/h 33mph /  53.1km/h 58% 0.01in /  0.25mm 926 W/m2
13:38 59.9 °F /  15.5 °C 44.7 °F /  7.1 °C 30.21in /  1022.9hPa WNW 16.7mph /  26.9km/h 27mph /  43.5km/h 57.3% 0.01in /  0.25mm 912 W/m2
13:44 60 °F /  15.6 °C 45.2 °F /  7.3 °C 30.21in /  1022.9hPa WNW 11.8mph /  19km/h 27mph /  43.5km/h 58% 0.01in /  0.25mm 940 W/m2
13:49 59.7 °F /  15.4 °C 45.4 °F /  7.4 °C 30.21in /  1022.9hPa WNW 16.6mph /  26.7km/h 28mph /  45.1km/h 59.2% 0.01in /  0.25mm 1023 W/m2
13:54 59.3 °F /  15.2 °C 45.5 °F /  7.5 °C 30.21in /  1022.9hPa WNW 16.2mph /  26.1km/h 29mph /  46.7km/h 60.2% 0.01in /  0.25mm 1023 W/m2
13:59 58.7 °F /  14.8 °C 46.3 °F /  7.9 °C 30.22in /  1023.2hPa WNW 14.6mph /  23.5km/h 29mph /  46.7km/h 63.4% 0.00in /  0mm 418 W/m2
14:04 58.1 °F /  14.5 °C 45.2 °F /  7.3 °C 30.22in /  1023.2hPa WNW 17.8mph /  28.6km/h 34mph /  54.7km/h 62.2% 0.00in /  0mm 489 W/m2
14:09 57.5 °F /  14.2 °C 44.2 °F /  6.8 °C 30.23in /  1023.6hPa West 14.2mph /  22.9km/h 34mph /  54.7km/h 61.2% 0.00in /  0mm 476 W/m2
14:14 57.4 °F /  14.1 °C 44.9 °F /  7.2 °C 30.23in /  1023.6hPa WNW 16mph /  25.7km/h 25mph /  40.2km/h 63% 0.00in /  0mm 452 W/m2
14:19 58.1 °F /  14.5 °C 45.1 °F /  7.3 °C 30.23in /  1023.6hPa West 12mph /  19.3km/h 28mph /  45.1km/h 61.8% 0.00in /  0mm 1034 W/m2
14:24 58.2 °F /  14.6 °C 45.1 °F /  7.3 °C 30.23in /  1023.6hPa West 15.2mph /  24.5km/h 31mph /  49.9km/h 61.6% 0.00in /  0mm 376 W/m2
14:29 58.5 °F /  14.7 °C 45.2 °F /  7.3 °C 30.23in /  1023.6hPa WNW 14.7mph /  23.7km/h 28mph /  45.1km/h 61.2% 0.00in /  0mm 981 W/m2
14:34 59.2 °F /  15.1 °C 45.5 °F /  7.5 °C 30.22in /  1023.2hPa West 19.4mph /  31.2km/h 31mph /  49.9km/h 60.4% 0.00in /  0mm 912 W/m2
14:39 59.7 °F /  15.4 °C 45.7 °F /  7.6 °C 30.22in /  1023.2hPa WSW 15.4mph /  24.8km/h 24mph /  38.6km/h 59.8% 0.00in /  0mm 1000 W/m2
14:44 59.5 °F /  15.3 °C 44.9 °F /  7.2 °C 30.22in /  1023.2hPa West 19mph /  30.6km/h 33mph /  53.1km/h 58.2% 0.00in /  0mm 990 W/m2
14:49 59 °F /  15 °C 45.1 °F /  7.3 °C 30.23in /  1023.6hPa WNW 17.5mph /  28.2km/h 31mph /  49.9km/h 59.8% 0.00in /  0mm 905 W/m2
14:54 59 °F /  15 °C 45.9 °F /  7.7 °C 30.23in /  1023.6hPa WNW 16mph /  25.7km/h 33mph /  53.1km/h 61.8% 0.00in /  0mm 831 W/m2
14:59 59.6 °F /  15.3 °C 45.7 °F /  7.6 °C 30.23in /  1023.6hPa WNW 13.4mph /  21.6km/h 27mph /  43.5km/h 60% 0.00in /  0mm 819 W/m2
15:04 59.7 °F /  15.4 °C 44.8 °F /  7.1 °C 30.25in /  1024.3hPa WNW 20.2mph /  32.5km/h 34mph /  54.7km/h 57.8% 0.00in /  0mm 837 W/m2
15:09 59.2 °F /  15.1 °C 44 °F /  6.7 °C 30.24in /  1023.9hPa West 15.4mph /  24.8km/h 34mph /  54.7km/h 57.2% 0.00in /  0mm 847 W/m2
15:14 59.3 °F /  15.2 °C 44.6 °F /  7 °C 30.24in /  1023.9hPa West 18.4mph /  29.6km/h 30mph /  48.3km/h 58.2% 0.00in /  0mm 833 W/m2
15:19 59.3 °F /  15.2 °C 44.3 °F /  6.8 °C 30.24in /  1023.9hPa WNW 18.8mph /  30.3km/h 30mph /  48.3km/h 57.5% 0.00in /  0mm 830 W/m2
15:24 59 °F /  15 °C 43.8 °F /  6.6 °C 30.24in /  1023.9hPa NW 16.4mph /  26.4km/h 34mph /  54.7km/h 57.2% 0.00in /  0mm 809 W/m2
15:29 59.4 °F /  15.2 °C 44.6 °F /  7 °C 30.24in /  1023.9hPa WNW 15.8mph /  25.4km/h 34mph /  54.7km/h 57.8% 0.00in /  0mm 795 W/m2
15:34 59.5 °F /  15.3 °C 45 °F /  7.2 °C 30.24in /  1023.9hPa WNW 13.4mph /  21.6km/h 29mph /  46.7km/h 58.8% 0.00in /  0mm 838 W/m2
15:39 60 °F /  15.6 °C 45.7 °F /  7.6 °C 30.25in /  1024.3hPa West 12mph /  19.3km/h 27mph /  43.5km/h 59.2% 0.00in /  0mm 821 W/m2
15:44 59.8 °F /  15.4 °C 45.2 °F /  7.3 °C 30.24in /  1023.9hPa West 13.3mph /  21.4km/h 26mph /  41.8km/h 58.3% 0.00in /  0mm 826 W/m2
15:49 59.9 °F /  15.5 °C 45.1 °F /  7.3 °C 30.25in /  1024.3hPa West 14.8mph /  23.8km/h 27mph /  43.5km/h 58% 0.00in /  0mm 809 W/m2
15:54 59.5 °F /  15.3 °C 44.9 °F /  7.2 °C 30.25in /  1024.3hPa West 19.8mph /  31.9km/h 27mph /  43.5km/h 58.6% 0.00in /  0mm 807 W/m2
15:59 59.4 °F /  15.2 °C 44.4 °F /  6.9 °C 30.25in /  1024.3hPa West 16.8mph /  27km/h 29mph /  46.7km/h 57.6% 0.00in /  0mm 773 W/m2
16:04 59.3 °F /  15.2 °C 44.9 °F /  7.2 °C 30.26in /  1024.6hPa WNW 19.2mph /  30.9km/h 32mph /  51.5km/h 59% 0.00in /  0mm 807 W/m2
16:09 59.6 °F /  15.3 °C 46.3 °F /  7.9 °C 30.26in /  1024.6hPa West 12.4mph /  20km/h 23mph /  37km/h 61.2% 0.00in /  0mm 807 W/m2
16:14 59.9 °F /  15.5 °C 46.8 °F /  8.2 °C 30.26in /  1024.6hPa WNW 11.2mph /  18km/h 26mph /  41.8km/h 62% 0.00in /  0mm 833 W/m2
16:19 60 °F /  15.6 °C 46.9 °F /  8.3 °C 30.26in /  1024.6hPa WSW 14.2mph /  22.9km/h 30mph /  48.3km/h 62% 0.00in /  0mm 805 W/m2
16:23 59.5 °F /  15.3 °C 46.8 °F /  8.2 °C 30.26in /  1024.6hPa West 14.2mph /  22.9km/h 29mph /  46.7km/h 62.8% 0.00in /  0mm 756 W/m2
16:29 58.6 °F /  14.8 °C 46.4 °F /  8 °C 30.26in /  1024.6hPa WNW 13mph /  20.9km/h 28mph /  45.1km/h 63.8% 0.00in /  0mm 703 W/m2
16:34 58.4 °F /  14.7 °C 46.1 °F /  7.8 °C 30.26in /  1024.6hPa WNW 11.8mph /  19km/h 29mph /  46.7km/h 63.6% 0.00in /  0mm 703 W/m2
16:39 58.9 °F /  14.9 °C 46.2 °F /  7.9 °C 30.26in /  1024.6hPa WNW 12mph /  19.3km/h 28mph /  45.1km/h 62.8% 0.00in /  0mm 659 W/m2
16:44 58.4 °F /  14.7 °C 46 °F /  7.8 °C 30.26in /  1024.6hPa WNW 15.7mph /  25.3km/h 28mph /  45.1km/h 63.4% 0.00in /  0mm 178 W/m2
16:49 58.1 °F /  14.5 °C 45.7 °F /  7.6 °C 30.27in /  1024.9hPa NW 15.8mph /  25.4km/h 30mph /  48.3km/h 63.4% 0.00in /  0mm 274 W/m2
16:53 57.9 °F /  14.4 °C 45.4 °F /  7.4 °C 30.26in /  1024.6hPa WNW 17.2mph /  27.7km/h 28mph /  45.1km/h 63% 0.00in /  0mm 661 W/m2
16:59 58.4 °F /  14.7 °C 45.5 °F /  7.5 °C 30.27in /  1024.9hPa West 14.1mph /  22.7km/h 28mph /  45.1km/h 62.2% 0.00in /  0mm 615 W/m2
17:04 58.2 °F /  14.6 °C 45.1 °F /  7.3 °C 30.27in /  1024.9hPa West 25mph /  40.2km/h 32mph /  51.5km/h 61.8% 0.00in /  0mm 589 W/m2
17:09 58.2 °F /  14.6 °C 44.7 °F /  7.1 °C 30.27in /  1024.9hPa WNW 15.8mph /  25.4km/h 32mph /  51.5km/h 60.6% 0.00in /  0mm 570 W/m2
17:14 58.1 °F /  14.5 °C 44.7 °F /  7.1 °C 30.28in /  1025.3hPa WNW 19.2mph /  30.9km/h 29mph /  46.7km/h 60.8% 0.00in /  0mm 584 W/m2
17:19 57.9 °F /  14.4 °C 44.5 °F /  6.9 °C 30.27in /  1024.9hPa West 17.9mph /  28.8km/h 32mph /  51.5km/h 60.8% 0.00in /  0mm 566 W/m2
17:24 58 °F /  14.4 °C 44.9 °F /  7.2 °C 30.27in /  1024.9hPa West 19.8mph /  31.9km/h 30mph /  48.3km/h 61.6% 0.00in /  0mm 547 W/m2
17:29 57.8 °F /  14.3 °C 45.2 °F /  7.3 °C 30.27in /  1024.9hPa West 12.6mph /  20.3km/h 27mph /  43.5km/h 62.8% 0.00in /  0mm 527 W/m2
17:34 57.7 °F /  14.3 °C 45.3 °F /  7.4 °C 30.28in /  1025.3hPa WNW 16.6mph /  26.7km/h 28mph /  45.1km/h 63.2% 0.00in /  0mm 515 W/m2
17:39 57.7 °F /  14.3 °C 45.2 °F /  7.3 °C 30.28in /  1025.3hPa West 15.3mph /  24.6km/h 29mph /  46.7km/h 62.8% 0.00in /  0mm 503 W/m2
17:44 57.7 °F /  14.3 °C 45.3 °F /  7.4 °C 30.28in /  1025.3hPa WNW 12.9mph /  20.8km/h 31mph /  49.9km/h 63.2% 0.00in /  0mm 489 W/m2
17:49 57.4 °F /  14.1 °C 45.8 °F /  7.7 °C 30.29in /  1025.6hPa West 13.6mph /  21.9km/h 27mph /  43.5km/h 65.4% 0.00in /  0mm 499 W/m2
17:54 57 °F /  13.9 °C 46.1 °F /  7.8 °C 30.28in /  1025.3hPa WNW 13.3mph /  21.4km/h 25mph /  40.2km/h 66.6% 0.00in /  0mm 504 W/m2
17:59 57.3 °F /  14.1 °C 46.4 °F /  8 °C 30.28in /  1025.3hPa WNW 12.9mph /  20.8km/h 23mph /  37km/h 66.8% 0.00in /  0mm 503 W/m2
18:04 57.9 °F /  14.4 °C 46.6 °F /  8.1 °C 30.28in /  1025.3hPa West 9.6mph /  15.4km/h 24mph /  38.6km/h 66.2% 0.00in /  0mm 441 W/m2
18:09 57.3 °F /  14.1 °C 46.5 °F /  8.1 °C 30.29in /  1025.6hPa WNW 10.8mph /  17.4km/h 29mph /  46.7km/h 67% 0.00in /  0mm 501 W/m2
18:14 56.8 °F /  13.8 °C 46.5 °F /  8.1 °C 30.28in /  1025.3hPa West 9mph /  14.5km/h 27mph /  43.5km/h 68% 0.00in /  0mm 457 W/m2
18:19 56.5 °F /  13.6 °C 46 °F /  7.8 °C 30.29in /  1025.6hPa West 14mph /  22.5km/h 25mph /  40.2km/h 68% 0.00in /  0mm 234 W/m2
18:24 56.3 °F /  13.5 °C 46.1 °F /  7.8 °C 30.29in /  1025.6hPa WNW 13mph /  20.9km/h 25mph /  40.2km/h 68.6% 0.00in /  0mm 153 W/m2
18:29 56 °F /  13.3 °C 46 °F /  7.8 °C 30.29in /  1025.6hPa West 9.8mph /  15.8km/h 25mph /  40.2km/h 69.2% 0.00in /  0mm 311 W/m2
18:34 56.1 °F /  13.4 °C 46.3 °F /  7.9 °C 30.28in /  1025.3hPa West 13.2mph /  21.2km/h 28mph /  45.1km/h 70% 0.00in /  0mm 336 W/m2
18:39 55.8 °F /  13.2 °C 46.1 °F /  7.8 °C 30.29in /  1025.6hPa West 9.9mph /  15.9km/h 23mph /  37km/h 70% 0.00in /  0mm 274 W/m2
18:44 55.8 °F /  13.2 °C 46 °F /  7.8 °C 30.29in /  1025.6hPa West 14.6mph /  23.5km/h 27mph /  43.5km/h 70% 0.00in /  0mm 211 W/m2
18:49 55.5 °F /  13.1 °C 46.1 °F /  7.8 °C 30.29in /  1025.6hPa West 12mph /  19.3km/h 26mph /  41.8km/h 70.4% 0.00in /  0mm 109 W/m2
18:54 55.2 °F /  12.9 °C 46 °F /  7.8 °C 30.29in /  1025.6hPa WNW 12.2mph /  19.6km/h 24mph /  38.6km/h 71% 0.00in /  0mm 91 W/m2
18:59 55.1 °F /  12.8 °C 46.3 °F /  7.9 °C 30.29in /  1025.6hPa WNW 15.2mph /  24.5km/h 25mph /  40.2km/h 72% 0.00in /  0mm 67 W/m2
19:04 55 °F /  12.8 °C 46.2 °F /  7.9 °C 30.29in /  1025.6hPa WNW 11.5mph /  18.5km/h 26mph /  41.8km/h 72% 0.00in /  0mm 70 W/m2
19:09 55 °F /  12.8 °C 46.2 °F /  7.9 °C 30.30in /  1026hPa West 10.4mph /  16.7km/h 29mph /  46.7km/h 72% 0.00in /  0mm 83 W/m2
19:14 54.9 °F /  12.7 °C 46.3 °F /  7.9 °C 30.30in /  1026hPa West 10.8mph /  17.4km/h 29mph /  46.7km/h 72.8% 0.00in /  0mm 76 W/m2
19:19 54.9 °F /  12.7 °C 46.4 °F /  8 °C 30.29in /  1025.6hPa West 14.6mph /  23.5km/h 25mph /  40.2km/h 73% 0.00in /  0mm 97 W/m2
19:24 54.9 °F /  12.7 °C 46.4 °F /  8 °C 30.29in /  1025.6hPa WNW 10.6mph /  17.1km/h 23mph /  37km/h 73% 0.00in /  0mm 95 W/m2
19:29 54.9 °F /  12.7 °C 46.4 °F /  8 °C 30.29in /  1025.6hPa WNW 14.8mph /  23.8km/h 24mph /  38.6km/h 73% 0.00in /  0mm 97 W/m2
19:34 54.7 °F /  12.6 °C 46.6 °F /  8.1 °C 30.29in /  1025.6hPa WNW 12.6mph /  20.3km/h 24mph /  38.6km/h 74% 0.00in /  0mm 88 W/m2
19:39 54.8 °F /  12.7 °C 46.7 °F /  8.2 °C 30.30in /  1026hPa WNW 8.8mph /  14.2km/h 22mph /  35.4km/h 74% 0.00in /  0mm 81 W/m2
19:44 54.7 °F /  12.6 °C 46.6 °F /  8.1 °C 30.30in /  1026hPa WNW 11.9mph /  19.2km/h 23mph /  37km/h 73.8% 0.00in /  0mm 70 W/m2
19:49 54.6 °F /  12.6 °C 46.5 °F /  8.1 °C 30.30in /  1026hPa WNW 11.8mph /  19km/h 20mph /  32.2km/h 74% 0.00in /  0mm 49 W/m2
19:54 54.5 °F /  12.5 °C 46.4 °F /  8 °C 30.31in /  1026.3hPa West 12.6mph /  20.3km/h 23mph /  37km/h 74% 0.00in /  0mm 47 W/m2
19:59 54.5 °F /  12.5 °C 46.7 °F /  8.2 °C 30.31in /  1026.3hPa West 9.5mph /  15.3km/h 21mph /  33.8km/h 74.8% 0.00in /  0mm 53 W/m2
20:04 54.3 °F /  12.4 °C 46.6 °F /  8.1 °C 30.31in /  1026.3hPa West 10.8mph /  17.4km/h 22mph /  35.4km/h 75% 0.00in /  0mm 58 W/m2
20:09 54.3 °F /  12.4 °C 46.6 °F /  8.1 °C 30.31in /  1026.3hPa WNW 11.2mph /  18km/h 19mph /  30.6km/h 75% 0.00in /  0mm 49 W/m2
20:14 54.3 °F /  12.4 °C 46.6 °F /  8.1 °C 30.31in /  1026.3hPa WNW 12.6mph /  20.3km/h 19mph /  30.6km/h 75% 0.00in /  0mm 51 W/m2
20:19 54.3 °F /  12.4 °C 46.6 °F /  8.1 °C 30.31in /  1026.3hPa West 7.8mph /  12.6km/h 19mph /  30.6km/h 75% 0.00in /  0mm 56 W/m2
20:24 54.3 °F /  12.4 °C 46.6 °F /  8.1 °C 30.31in /  1026.3hPa WNW 7.6mph /  12.2km/h 23mph /  37km/h 75% 0.00in /  0mm 54 W/m2
20:29 54.3 °F /  12.4 °C 46.6 °F /  8.1 °C 30.31in /  1026.3hPa West 10.6mph /  17.1km/h 23mph /  37km/h 75% 0.00in /  0mm 42 W/m2
20:34 54.1 °F /  12.3 °C 46.4 °F /  8 °C 30.31in /  1026.3hPa West 6.5mph /  10.5km/h 19mph /  30.6km/h 75% 0.00in /  0mm 23 W/m2
20:39 54.1 °F /  12.3 °C 46.3 °F /  7.9 °C 30.31in /  1026.3hPa West 8.2mph /  13.2km/h 22mph /  35.4km/h 75% 0.00in /  0mm 19 W/m2
20:44 53.9 °F /  12.2 °C 46.1 °F /  7.8 °C 30.31in /  1026.3hPa West 7.5mph /  12.1km/h 22mph /  35.4km/h 75% 0.00in /  0mm 16 W/m2
20:49 53.8 °F /  12.1 °C 46 °F /  7.8 °C 30.32in /  1026.6hPa West 12.8mph /  20.6km/h 21mph /  33.8km/h 75% 0.00in /  0mm 11 W/m2
20:54 53.8 °F /  12.1 °C 46.4 °F /  8 °C 30.32in /  1026.6hPa WNW 8.8mph /  14.2km/h 20mph /  32.2km/h 76% 0.00in /  0mm 7 W/m2
20:58 53.6 °F /  12 °C 46.2 °F /  7.9 °C 30.32in /  1026.6hPa WNW 9.1mph /  14.6km/h 18mph /  29km/h 76% 0.00in /  0mm 5 W/m2
21:04 53.6 °F /  12 °C 46.2 °F /  7.9 °C 30.32in /  1026.6hPa West 12mph /  19.3km/h 21mph /  33.8km/h 76% 0.00in /  0mm 0 W/m2
21:09 53.4 °F /  11.9 °C 46 °F /  7.8 °C 30.32in /  1026.6hPa West 10mph /  16.1km/h 19mph /  30.6km/h 76% 0.00in /  0mm 0 W/m2
21:14 53.4 °F /  11.9 °C 46 °F /  7.8 °C 30.32in /  1026.6hPa West 9.8mph /  15.8km/h 21mph /  33.8km/h 76% 0.00in /  0mm 0 W/m2
21:19 53.4 °F /  11.9 °C 46 °F /  7.8 °C 30.32in /  1026.6hPa West 10.1mph /  16.3km/h 17mph /  27.4km/h 76% 0.00in /  0mm 0 W/m2
21:24 53.4 °F /  11.9 °C 46 °F /  7.8 °C 30.32in /  1026.6hPa WNW 9mph /  14.5km/h 18mph /  29km/h 76% 0.00in /  0mm 0 W/m2
21:29 53.3 °F /  11.8 °C 46.2 °F /  7.9 °C 30.32in /  1026.6hPa West 7.6mph /  12.2km/h 16mph /  25.7km/h 76.6% 0.00in /  0mm 0 W/m2
21:34 53.2 °F /  11.8 °C 46.2 °F /  7.9 °C 30.32in /  1026.6hPa West 6.7mph /  10.8km/h 17mph /  27.4km/h 77% 0.00in /  0mm 0 W/m2
21:39 53.2 °F /  11.8 °C 46.4 °F /  8 °C 30.33in /  1027hPa WNW 8mph /  12.9km/h 15mph /  24.1km/h 77.6% 0.00in /  0mm 0 W/m2
21:44 53.1 °F /  11.7 °C 46.4 °F /  8 °C 30.33in /  1027hPa West 9mph /  14.5km/h 13mph /  20.9km/h 78% 0.00in /  0mm 0 W/m2
21:49 53.1 °F /  11.7 °C 46.4 °F /  8 °C 30.33in /  1027hPa West 9.2mph /  14.8km/h 17mph /  27.4km/h 78% 0.00in /  0mm 0 W/m2
21:54 53.1 °F /  11.7 °C 46.4 °F /  8 °C 30.33in /  1027hPa West 8.8mph /  14.2km/h 19mph /  30.6km/h 78% 0.00in /  0mm 0 W/m2
21:59 53.1 °F /  11.7 °C 46.4 °F /  8 °C 30.33in /  1027hPa WNW 8.8mph /  14.2km/h 16mph /  25.7km/h 78% 0.00in /  0mm 0 W/m2
22:04 53.2 °F /  11.8 °C 46.6 °F /  8.1 °C 30.33in /  1027hPa West 6.3mph /  10.1km/h 16mph /  25.7km/h 78% 0.00in /  0mm 0 W/m2
22:09 53.2 °F /  11.8 °C 46.8 °F /  8.2 °C 30.33in /  1027hPa NW 9.6mph /  15.4km/h 16mph /  25.7km/h 78.8% 0.00in /  0mm 0 W/m2
22:14 53.2 °F /  11.8 °C 46.9 °F /  8.3 °C 30.33in /  1027hPa WNW 9.4mph /  15.1km/h 18mph /  29km/h 79% 0.00in /  0mm 0 W/m2
22:19 53.2 °F /  11.8 °C 46.9 °F /  8.3 °C 30.33in /  1027hPa West 10.9mph /  17.5km/h 17mph /  27.4km/h 79% 0.00in /  0mm 0 W/m2
22:24 53.2 °F /  11.8 °C 46.9 °F /  8.3 °C 30.34in /  1027.3hPa West 9.6mph /  15.4km/h 18mph /  29km/h 79% 0.00in /  0mm 0 W/m2
22:29 53.3 °F /  11.8 °C 47 °F /  8.3 °C 30.34in /  1027.3hPa WNW 10mph /  16.1km/h 18mph /  29km/h 79% 0.00in /  0mm 0 W/m2
22:34 53.4 °F /  11.9 °C 47.1 °F /  8.4 °C 30.34in /  1027.3hPa West 5.8mph /  9.3km/h 18mph /  29km/h 79% 0.00in /  0mm 0 W/m2
22:39 53.3 °F /  11.8 °C 47 °F /  8.3 °C 30.34in /  1027.3hPa West 8.2mph /  13.2km/h 18mph /  29km/h 79% 0.00in /  0mm 0 W/m2
22:44 53.4 °F /  11.9 °C 47.1 °F /  8.4 °C 30.34in /  1027.3hPa West 7.7mph /  12.4km/h 19mph /  30.6km/h 79% 0.00in /  0mm 0 W/m2
22:48 53.4 °F /  11.9 °C 47.1 °F /  8.4 °C 30.34in /  1027.3hPa WNW 9.8mph /  15.8km/h 19mph /  30.6km/h 79% 0.00in /  0mm 0 W/m2
22:54 53.4 °F /  11.9 °C 47.1 °F /  8.4 °C 30.34in /  1027.3hPa West 4.8mph /  7.7km/h 14mph /  22.5km/h 79% 0.00in /  0mm 0 W/m2
22:59 53.3 °F /  11.8 °C 47 °F /  8.3 °C 30.34in /  1027.3hPa WNW 8.2mph /  13.2km/h 17mph /  27.4km/h 79% 0.00in /  0mm 0 W/m2
23:04 53.2 °F /  11.8 °C 46.9 °F /  8.3 °C 30.34in /  1027.3hPa WNW 9.9mph /  15.9km/h 19mph /  30.6km/h 79% 0.00in /  0mm 0 W/m2
23:09 53.2 °F /  11.8 °C 46.9 °F /  8.3 °C 30.34in /  1027.3hPa WNW 7.6mph /  12.2km/h 14mph /  22.5km/h 79% 0.00in /  0mm 0 W/m2
23:14 53.2 °F /  11.8 °C 46.9 °F /  8.3 °C 30.34in /  1027.3hPa WNW 9.8mph /  15.8km/h 14mph /  22.5km/h 79% 0.00in /  0mm 0 W/m2
23:19 53.3 °F /  11.8 °C 47 °F /  8.3 °C 30.35in /  1027.7hPa WNW 8.8mph /  14.2km/h 14mph /  22.5km/h 79% 0.00in /  0mm 0 W/m2
23:24 53.4 °F /  11.9 °C 47.1 °F /  8.4 °C 30.35in /  1027.7hPa WNW 6.5mph /  10.5km/h 14mph /  22.5km/h 79% 0.00in /  0mm 0 W/m2
23:29 53.4 °F /  11.9 °C 47.1 °F /  8.4 °C 30.35in /  1027.7hPa West 7mph /  11.3km/h 15mph /  24.1km/h 79% 0.00in /  0mm 0 W/m2
23:34 53.4 °F /  11.9 °C 47.1 °F /  8.4 °C 30.35in /  1027.7hPa WNW 9mph /  14.5km/h 14mph /  22.5km/h 79% 0.00in /  0mm 0 W/m2
23:39 53.4 °F /  11.9 °C 47.1 °F /  8.4 °C 30.35in /  1027.7hPa West 7mph /  11.3km/h 14mph /  22.5km/h 79% 0.00in /  0mm 0 W/m2
23:44 53.4 °F /  11.9 °C 47.3 °F /  8.5 °C 30.35in /  1027.7hPa WNW 6.8mph /  10.9km/h 14mph /  22.5km/h 79.4% 0.00in /  0mm 0 W/m2
23:49 53.4 °F /  11.9 °C 47.5 °F /  8.6 °C 30.35in /  1027.7hPa WNW 6.1mph /  9.8km/h 14mph /  22.5km/h 80% 0.00in /  0mm 0 W/m2
23:54 53.4 °F /  11.9 °C 47.5 °F /  8.6 °C 30.35in /  1027.7hPa WNW 7mph /  11.3km/h 13mph /  20.9km/h 80% 0.00in /  0mm 0 W/m2
23:59 53.4 °F /  11.9 °C 47.5 °F /  8.6 °C 30.35in /  1027.7hPa WNW 5.6mph /  9km/h 14mph /  22.5km/h 80% 0.00in /  0mm 0 W/m2
Bath Spa Weather
Compliments of Weather Underground - 2 mb